createdAt,value
2018-03-01T00:00:02.595Z,-6.82
2018-03-01T00:02:33.619Z,-6.85
2018-03-01T00:05:04.623Z,-6.92
2018-03-01T00:07:35.643Z,-7.00
2018-03-01T00:10:06.663Z,-7.07
2018-03-01T00:12:37.700Z,-7.07
2018-03-01T00:15:08.716Z,-7.09
2018-03-01T00:17:39.759Z,-7.18
2018-03-01T00:20:10.769Z,-7.17
2018-03-01T00:22:41.796Z,-7.16
2018-03-01T00:25:12.817Z,-7.13
2018-03-01T00:27:43.846Z,-7.10
2018-03-01T00:30:14.868Z,-7.12
2018-03-01T00:32:46.822Z,-7.10
2018-03-01T00:35:17.856Z,-6.99
2018-03-01T00:37:48.880Z,-6.83
2018-03-01T00:40:20.733Z,-6.96
2018-03-01T00:42:51.770Z,-6.96
2018-03-01T00:45:22.802Z,-6.99
2018-03-01T00:47:53.829Z,-7.06
2018-03-01T00:50:24.864Z,-7.05
2018-03-01T00:52:55.855Z,-7.15
2018-03-01T00:55:26.877Z,-7.25
2018-03-01T00:57:57.902Z,-7.25
2018-03-01T01:00:28.944Z,-7.22
2018-03-01T01:02:59.927Z,-7.19
2018-03-01T01:05:30.959Z,-7.21
2018-03-01T01:08:01.964Z,-7.24
2018-03-01T01:10:33.068Z,-7.31
2018-03-01T01:13:04.053Z,-7.29
2018-03-01T01:15:35.091Z,-7.21
2018-03-01T01:18:06.080Z,-7.16
2018-03-01T01:20:37.133Z,-7.12
2018-03-01T01:23:08.202Z,-7.25
2018-03-01T01:25:39.208Z,-7.27
2018-03-01T01:28:10.225Z,-7.17
2018-03-01T01:30:41.234Z,-7.15
2018-03-01T01:33:12.261Z,-7.12
2018-03-01T01:35:43.287Z,-7.09
2018-03-01T01:38:14.305Z,-7.15
2018-03-01T01:40:45.323Z,-7.19
2018-03-01T01:43:16.311Z,-7.09
2018-03-01T01:45:47.361Z,-7.00
2018-03-01T01:48:18.382Z,-6.95
2018-03-01T01:51:03.693Z,-6.92
2018-03-01T01:53:34.695Z,-6.96
2018-03-01T01:56:05.738Z,-6.92
2018-03-01T01:58:36.781Z,-6.82
2018-03-01T02:01:07.808Z,-6.80
2018-03-01T02:03:38.848Z,-6.73
2018-03-01T02:06:09.844Z,-6.71
2018-03-01T02:08:40.890Z,-6.63
2018-03-01T02:11:11.925Z,-6.56
2018-03-01T02:13:42.944Z,-6.59
2018-03-01T02:16:13.963Z,-6.60
2018-03-01T02:18:44.931Z,-6.63
2018-03-01T02:21:15.974Z,-6.63
2018-03-01T02:23:46.952Z,-6.62
2018-03-01T02:26:17.931Z,-6.72
2018-03-01T02:28:48.913Z,-6.62
2018-03-01T02:31:19.923Z,-6.47
2018-03-01T02:33:50.910Z,-6.42
2018-03-01T02:36:32.029Z,-6.46
2018-03-01T02:39:03.127Z,-6.50
2018-03-01T02:41:34.173Z,-6.41
2018-03-01T02:44:05.182Z,-6.41
2018-03-01T02:46:36.182Z,-6.48
2018-03-01T02:49:07.209Z,-6.43
2018-03-01T02:51:38.181Z,-6.36
2018-03-01T02:54:09.172Z,-6.28
2018-03-01T02:56:40.128Z,-6.38
2018-03-01T02:59:11.089Z,-6.34
2018-03-01T03:01:42.064Z,-6.29
2018-03-01T03:04:13.058Z,-6.34
2018-03-01T03:06:44.057Z,-6.35
2018-03-01T03:09:15.082Z,-6.22
2018-03-01T03:11:46.087Z,-6.23
2018-03-01T03:14:17.053Z,-6.16
2018-03-01T03:16:48.051Z,-6.09
2018-03-01T03:19:19.080Z,-6.24
2018-03-01T03:21:50.080Z,-6.21
2018-03-01T03:24:21.086Z,-6.28
2018-03-01T03:26:52.100Z,-6.26
2018-03-01T03:29:23.115Z,-6.20
2018-03-01T03:31:54.150Z,-6.12
2018-03-01T03:34:25.147Z,-6.08
2018-03-01T03:36:56.172Z,-6.17
2018-03-01T03:39:27.134Z,-6.15
2018-03-01T03:41:58.133Z,-6.29
2018-03-01T03:44:29.122Z,-6.19
2018-03-01T03:47:00.129Z,-6.13
2018-03-01T03:49:31.161Z,-6.06
2018-03-01T03:52:02.167Z,-6.13
2018-03-01T03:54:33.162Z,-6.13
2018-03-01T03:57:04.145Z,-6.12
2018-03-01T03:59:35.176Z,-6.11
2018-03-01T04:02:06.150Z,-6.16
2018-03-01T04:04:37.175Z,-6.18
2018-03-01T04:07:08.121Z,-6.26
2018-03-01T04:09:39.164Z,-6.29
2018-03-01T04:12:10.137Z,-6.24
2018-03-01T04:14:41.141Z,-6.27
2018-03-01T04:17:12.119Z,-6.41
2018-03-01T04:19:43.168Z,-6.35
2018-03-01T04:22:14.185Z,-6.27
2018-03-01T04:24:45.171Z,-6.24
2018-03-01T04:27:16.145Z,-6.29
2018-03-01T04:29:47.182Z,-6.32
2018-03-01T04:32:18.153Z,-6.33
2018-03-01T04:34:49.124Z,-6.26
2018-03-01T04:37:20.160Z,-6.13
2018-03-01T04:39:51.211Z,-6.14
2018-03-01T04:42:22.158Z,-6.14
2018-03-01T04:44:53.127Z,-6.04
2018-03-01T04:47:24.135Z,-5.98
2018-03-01T04:49:55.142Z,-5.86
2018-03-01T04:52:26.143Z,-6.00
2018-03-01T04:54:57.118Z,-6.05
2018-03-01T04:57:28.115Z,-5.98
2018-03-01T04:59:59.245Z,-6.02
2018-03-01T05:02:30.228Z,-6.00
2018-03-01T05:05:01.222Z,-6.05
2018-03-01T05:07:32.243Z,-6.17
2018-03-01T05:10:03.234Z,-6.16
2018-03-01T05:12:34.238Z,-6.23
2018-03-01T05:15:05.205Z,-6.20
2018-03-01T05:17:36.229Z,-6.11
2018-03-01T05:20:07.240Z,-5.99
2018-03-01T05:22:38.201Z,-6.04
2018-03-01T05:25:09.228Z,-6.13
2018-03-01T05:27:40.259Z,-6.16
2018-03-01T05:30:11.261Z,-6.26
2018-03-01T05:32:42.227Z,-6.39
2018-03-01T05:35:13.548Z,-6.28
2018-03-01T05:37:44.560Z,-6.22
2018-03-01T05:40:15.560Z,-6.24
2018-03-01T05:42:46.545Z,-6.27
2018-03-01T05:45:17.526Z,-6.35
2018-03-01T05:47:48.549Z,-6.31
2018-03-01T05:50:19.543Z,-6.50
2018-03-01T05:52:50.546Z,-6.45
2018-03-01T05:55:21.536Z,-6.48
2018-03-01T05:57:52.573Z,-6.49
2018-03-01T06:00:23.556Z,-6.53
2018-03-01T06:02:54.532Z,-6.46
2018-03-01T06:05:25.500Z,-6.33
2018-03-01T06:07:56.537Z,-6.38
2018-03-01T06:10:27.518Z,-6.33
2018-03-01T06:12:58.556Z,-6.25
2018-03-01T06:15:29.593Z,-6.20
2018-03-01T06:18:07.371Z,-6.21
2018-03-01T06:20:38.364Z,-6.26
2018-03-01T06:23:09.413Z,-6.27
2018-03-01T06:25:40.428Z,-6.17
2018-03-01T06:28:11.443Z,-6.10
2018-03-01T06:30:42.441Z,-5.99
2018-03-01T06:33:13.444Z,-6.11
2018-03-01T06:35:44.411Z,-6.17
2018-03-01T06:38:15.423Z,-6.02
2018-03-01T06:40:46.372Z,-5.91
2018-03-01T06:43:17.337Z,-5.71
2018-03-01T06:45:48.292Z,-5.73
2018-03-01T06:48:20.334Z,-5.50
2018-03-01T06:50:51.351Z,-5.39
2018-03-01T06:53:22.364Z,-5.22
2018-03-01T06:55:53.389Z,-5.12
2018-03-01T06:58:24.392Z,-5.12
2018-03-01T07:00:55.390Z,-5.10
2018-03-01T07:03:26.429Z,-4.99
2018-03-01T07:05:57.418Z,-4.93
2018-03-01T07:08:28.424Z,-4.99
2018-03-01T07:10:59.392Z,-5.03
2018-03-01T07:13:30.384Z,-4.71
2018-03-01T07:16:01.424Z,-4.45
2018-03-01T07:18:32.413Z,-4.22
2018-03-01T07:21:03.432Z,-4.16
2018-03-01T07:23:34.440Z,-3.90
2018-03-01T07:26:05.493Z,-3.66
2018-03-01T07:28:36.494Z,-3.65
2018-03-01T07:31:07.476Z,-3.78
2018-03-01T07:33:38.487Z,-3.74
2018-03-01T07:36:09.520Z,-3.60
2018-03-01T07:38:40.546Z,-3.32
2018-03-01T07:41:11.521Z,-3.46
2018-03-01T07:43:42.522Z,-3.69
2018-03-01T07:46:13.526Z,-3.46
2018-03-01T07:48:44.520Z,-3.45
2018-03-01T07:51:15.496Z,-3.36
2018-03-01T07:53:46.537Z,-3.38
2018-03-01T07:56:17.513Z,-3.43
2018-03-01T07:58:48.531Z,-3.19
2018-03-01T08:01:19.565Z,-3.10
2018-03-01T08:03:50.560Z,-3.10
2018-03-01T08:06:21.558Z,-2.77
2018-03-01T08:08:52.658Z,-2.58
2018-03-01T08:11:23.613Z,-2.60
2018-03-01T08:13:54.638Z,-2.54
2018-03-01T08:16:25.674Z,-2.64
2018-03-01T08:18:56.757Z,-2.78
2018-03-01T08:21:27.736Z,-2.92
2018-03-01T08:23:58.759Z,-2.63
2018-03-01T08:26:29.785Z,-2.62
2018-03-01T08:29:00.792Z,-2.82
2018-03-01T08:31:31.865Z,-3.11
2018-03-01T08:34:02.862Z,-3.18
2018-03-01T08:36:33.911Z,-3.17
2018-03-01T08:39:04.899Z,-3.09
2018-03-01T08:41:35.873Z,-3.06
2018-03-01T08:44:06.898Z,-2.98
2018-03-01T08:46:37.873Z,-2.88
2018-03-01T08:49:08.910Z,-2.67
2018-03-01T08:51:39.907Z,-2.51
2018-03-01T08:54:10.927Z,-2.35
2018-03-01T08:56:41.916Z,-1.90
2018-03-01T08:59:12.922Z,-1.48
2018-03-01T09:01:43.890Z,-1.18
2018-03-01T09:04:14.922Z,-1.60
2018-03-01T09:06:45.922Z,-1.14
2018-03-01T09:09:16.903Z,-0.86
2018-03-01T09:11:47.937Z,-0.69
2018-03-01T09:14:19.148Z,0.24
2018-03-01T09:16:50.236Z,0.81
2018-03-01T09:19:21.242Z,1.42
2018-03-01T09:21:52.272Z,1.21
2018-03-01T09:24:23.273Z,0.79
2018-03-01T09:26:54.243Z,0.33
2018-03-01T09:29:25.247Z,0.99
2018-03-01T09:31:56.264Z,2.17
2018-03-01T09:34:27.248Z,3.57
2018-03-01T09:36:58.269Z,4.42
2018-03-01T09:39:29.227Z,5.66
2018-03-01T09:42:00.232Z,5.91
2018-03-01T09:44:31.266Z,6.66
2018-03-01T09:47:02.280Z,6.95
2018-03-01T09:49:33.258Z,6.84
2018-03-01T09:52:04.253Z,5.60
2018-03-01T09:54:35.251Z,5.34
2018-03-01T09:57:06.231Z,5.39
2018-03-01T09:59:37.196Z,4.97
2018-03-01T10:02:08.200Z,4.63
2018-03-01T10:04:39.213Z,4.94
2018-03-01T10:07:10.246Z,6.17
2018-03-01T10:09:41.270Z,6.23
2018-03-01T10:12:12.242Z,6.85
2018-03-01T10:14:43.258Z,7.52
2018-03-01T10:17:14.256Z,7.93
2018-03-01T10:19:45.697Z,9.04
2018-03-01T10:22:16.724Z,9.60
2018-03-01T10:24:47.682Z,11.08
2018-03-01T10:27:18.702Z,11.64
2018-03-01T10:29:49.701Z,11.62
2018-03-01T10:32:20.708Z,10.50
2018-03-01T10:34:51.717Z,9.50
2018-03-01T10:37:22.695Z,9.24
2018-03-01T10:39:53.705Z,9.90
2018-03-01T10:42:24.691Z,11.03
2018-03-01T10:44:55.751Z,11.07
2018-03-01T10:47:26.679Z,10.60
2018-03-01T10:49:57.645Z,10.96
2018-03-01T10:52:28.604Z,11.67
2018-03-01T10:54:59.605Z,10.96
2018-03-01T10:57:30.602Z,10.74
2018-03-01T11:00:01.600Z,10.71
2018-03-01T11:02:32.674Z,10.56
2018-03-01T11:05:03.651Z,10.04
2018-03-01T11:07:34.633Z,10.30
2018-03-01T11:10:05.709Z,10.55
2018-03-01T11:12:36.740Z,10.00
2018-03-01T11:15:07.715Z,8.98
2018-03-01T11:17:38.756Z,8.15
2018-03-01T11:20:09.804Z,8.34
2018-03-01T11:22:40.763Z,8.25
2018-03-01T11:25:11.757Z,8.65
2018-03-01T11:27:42.770Z,8.73
2018-03-01T11:30:13.784Z,8.18
2018-03-01T11:32:44.764Z,6.99
2018-03-01T11:35:15.866Z,6.51
2018-03-01T11:37:46.878Z,5.57
2018-03-01T11:40:17.890Z,5.21
2018-03-01T11:42:48.892Z,4.32
2018-03-01T11:45:19.878Z,3.70
2018-03-01T11:47:50.889Z,3.36
2018-03-01T11:50:21.925Z,3.33
2018-03-01T11:52:52.924Z,3.41
2018-03-01T11:55:23.947Z,3.00
2018-03-01T11:57:55.001Z,2.79
2018-03-01T12:00:25.971Z,3.00
2018-03-01T12:02:56.990Z,3.31
2018-03-01T12:05:27.960Z,3.67
2018-03-01T12:07:58.933Z,4.34
2018-03-01T12:10:29.951Z,5.04
2018-03-01T12:13:00.927Z,5.57
2018-03-01T12:15:31.888Z,5.81
2018-03-01T12:18:02.847Z,6.41
2018-03-01T12:20:33.952Z,6.16
2018-03-01T12:23:04.942Z,5.84
2018-03-01T12:25:35.972Z,5.80
2018-03-01T12:28:06.954Z,6.22
2018-03-01T12:30:37.964Z,7.09
2018-03-01T12:33:08.998Z,7.22
2018-03-01T12:35:40.051Z,6.91
2018-03-01T12:38:11.044Z,6.46
2018-03-01T12:40:42.057Z,5.79
2018-03-01T12:43:13.065Z,5.29
2018-03-01T12:45:44.051Z,5.48
2018-03-01T12:48:15.074Z,5.49
2018-03-01T12:50:46.096Z,5.54
2018-03-01T12:53:17.131Z,5.23
2018-03-01T12:55:48.194Z,5.09
2018-03-01T12:58:19.208Z,4.35
2018-03-01T13:00:50.286Z,4.19
2018-03-01T13:03:21.294Z,4.11
2018-03-01T13:05:52.313Z,3.56
2018-03-01T13:08:23.358Z,3.39
2018-03-01T13:10:54.382Z,3.66
2018-03-01T13:13:25.435Z,3.33
2018-03-01T13:15:56.476Z,3.15
2018-03-01T13:18:27.537Z,3.09
2018-03-01T13:20:58.551Z,3.07
2018-03-01T13:23:29.571Z,2.82
2018-03-01T13:26:00.578Z,2.81
2018-03-01T13:28:31.609Z,2.72
2018-03-01T13:31:05.564Z,2.64
2018-03-01T13:33:48.439Z,2.47
2018-03-01T13:36:19.453Z,2.78
2018-03-01T13:38:50.490Z,2.89
2018-03-01T13:41:21.567Z,3.06
2018-03-01T13:43:52.629Z,3.12
2018-03-01T13:46:26.435Z,2.60
2018-03-01T13:48:57.451Z,2.58
2018-03-01T13:51:28.469Z,2.91
2018-03-01T13:53:59.495Z,3.18
2018-03-01T13:56:30.532Z,3.14
2018-03-01T13:59:01.554Z,3.48
2018-03-01T14:01:32.594Z,3.25
2018-03-01T14:04:03.584Z,2.77
2018-03-01T14:06:42.656Z,3.15
2018-03-01T14:09:13.639Z,3.26
2018-03-01T14:11:44.620Z,3.17
2018-03-01T14:14:15.681Z,3.22
2018-03-01T14:16:47.486Z,2.82
2018-03-01T14:19:24.487Z,2.72
2018-03-01T14:25:01.629Z,2.01
2018-03-01T14:27:33.556Z,2.05
2018-03-01T14:30:04.617Z,2.30
2018-03-01T14:32:35.630Z,2.10
2018-03-01T14:35:06.650Z,2.06
2018-03-01T14:37:37.658Z,2.08
2018-03-01T14:40:08.652Z,2.45
2018-03-01T14:42:39.623Z,2.74
2018-03-01T14:45:10.667Z,2.83
2018-03-01T14:47:41.645Z,2.90
2018-03-01T14:50:12.654Z,2.90
2018-03-01T14:52:43.667Z,2.91
2018-03-01T14:55:14.724Z,2.76
2018-03-01T14:57:45.733Z,2.60
2018-03-01T15:00:16.735Z,2.65
2018-03-01T15:02:47.750Z,2.68
2018-03-01T15:05:18.751Z,2.89
2018-03-01T15:07:49.742Z,2.67
2018-03-01T15:10:20.784Z,2.29
2018-03-01T15:12:51.785Z,2.19
2018-03-01T15:15:22.758Z,2.03
2018-03-01T15:17:53.747Z,2.01
2018-03-01T15:20:24.775Z,2.10
2018-03-01T15:22:55.769Z,1.97
2018-03-01T15:25:26.738Z,1.96
2018-03-01T15:27:57.718Z,1.89
2018-03-01T15:30:28.735Z,1.67
2018-03-01T15:32:59.703Z,1.45
2018-03-01T15:35:30.724Z,1.14
2018-03-01T15:38:01.735Z,1.07
2018-03-01T15:40:32.708Z,0.84
2018-03-01T15:43:03.752Z,0.65
2018-03-01T15:45:34.690Z,0.56
2018-03-01T15:48:05.709Z,0.53
2018-03-01T15:50:36.700Z,0.59
2018-03-01T15:53:07.726Z,0.52
2018-03-01T15:55:38.756Z,0.43
2018-03-01T15:58:09.692Z,0.44
2018-03-01T16:00:40.772Z,0.20
2018-03-01T16:03:11.677Z,0.27
2018-03-01T16:05:42.657Z,0.13
2018-03-01T16:08:13.641Z,0.03
2018-03-01T16:10:44.656Z,-0.10
2018-03-01T16:13:15.664Z,-0.20
2018-03-01T16:15:46.672Z,-0.43
2018-03-01T16:18:17.647Z,-0.47
2018-03-01T16:20:48.656Z,-0.48
2018-03-01T16:23:19.643Z,-0.56
2018-03-01T16:25:50.584Z,-0.59
2018-03-01T16:28:21.605Z,-0.59
2018-03-01T16:30:52.588Z,-0.60
2018-03-01T16:33:23.610Z,-0.54
2018-03-01T16:35:54.591Z,-0.56
2018-03-01T16:38:25.566Z,-0.76
2018-03-01T16:40:56.564Z,-0.87
2018-03-01T16:43:27.533Z,-0.94
2018-03-01T16:45:58.581Z,-1.00
2018-03-01T16:48:29.554Z,-1.00
2018-03-01T16:51:00.535Z,-1.06
2018-03-01T16:53:31.528Z,-1.24
2018-03-01T16:56:02.522Z,-1.26
2018-03-01T16:58:33.546Z,-1.26
2018-03-01T17:03:42.252Z,-1.32
2018-03-01T17:06:13.228Z,-1.44
2018-03-01T17:08:44.279Z,-1.50
2018-03-01T17:11:15.295Z,-1.42
2018-03-01T17:13:46.298Z,-1.46
2018-03-01T17:16:17.276Z,-1.47
2018-03-01T17:21:25.968Z,-1.56
2018-03-01T17:23:57.001Z,-1.57
2018-03-01T17:26:27.989Z,-1.59
2018-03-01T17:28:59.031Z,-1.68
2018-03-01T17:31:30.008Z,-1.71
2018-03-01T17:34:00.995Z,-1.74
2018-03-01T17:36:32.058Z,-1.71
2018-03-01T17:39:03.112Z,-1.73
2018-03-01T17:41:34.131Z,-1.74
2018-03-01T17:44:05.115Z,-1.83
2018-03-01T17:46:36.087Z,-1.83
2018-03-01T17:49:07.131Z,-1.83
2018-03-01T17:51:38.103Z,-1.77
2018-03-01T17:54:09.066Z,-1.83
2018-03-01T17:56:40.109Z,-1.82
2018-03-01T17:59:11.153Z,-1.80
2018-03-01T18:01:42.191Z,-1.80
2018-03-01T18:04:13.182Z,-1.90
2018-03-01T18:06:44.200Z,-1.95
2018-03-01T18:09:15.217Z,-2.00
2018-03-01T18:11:46.259Z,-2.08
2018-03-01T18:14:17.329Z,-2.07
2018-03-01T18:16:48.317Z,-2.17
2018-03-01T18:19:19.293Z,-2.14
2018-03-01T18:21:50.299Z,-2.16
2018-03-01T18:24:21.355Z,-2.22
2018-03-01T18:26:52.324Z,-2.25
2018-03-01T18:29:23.319Z,-2.23
2018-03-01T18:31:54.310Z,-2.35
2018-03-01T18:34:25.312Z,-2.43
2018-03-01T18:36:56.327Z,-2.36
2018-03-01T18:39:27.353Z,-2.36
2018-03-01T18:41:58.388Z,-2.49
2018-03-01T18:44:29.387Z,-2.56
2018-03-01T18:47:00.442Z,-2.51
2018-03-01T18:49:31.489Z,-2.56
2018-03-01T18:52:02.463Z,-2.55
2018-03-01T18:54:33.463Z,-2.65
2018-03-01T18:57:04.433Z,-2.63
2018-03-01T18:59:35.444Z,-2.57
2018-03-01T19:02:06.417Z,-2.55
2018-03-01T19:04:37.498Z,-2.53
2018-03-01T19:07:08.537Z,-2.57
2018-03-01T19:09:39.529Z,-2.46
2018-03-01T19:12:10.565Z,-2.46
2018-03-01T19:14:41.616Z,-2.39
2018-03-01T19:17:12.623Z,-2.47
2018-03-01T19:19:43.649Z,-2.52
2018-03-01T19:22:14.616Z,-2.52
2018-03-01T19:24:45.639Z,-2.56
2018-03-01T19:27:16.628Z,-2.62
2018-03-01T19:29:47.704Z,-2.63
2018-03-01T19:32:18.730Z,-2.59
2018-03-01T19:34:49.716Z,-2.51
2018-03-01T19:37:20.769Z,-2.53
2018-03-01T19:39:51.743Z,-2.41
2018-03-01T19:42:22.798Z,-2.44
2018-03-01T19:44:53.786Z,-2.32
2018-03-01T19:47:24.772Z,-2.29
2018-03-01T19:49:55.802Z,-2.24
2018-03-01T19:52:26.800Z,-2.27
2018-03-01T19:54:57.961Z,-2.24
2018-03-01T19:57:28.948Z,-2.23
2018-03-01T19:59:59.922Z,-2.10
2018-03-01T20:02:30.921Z,-2.06
2018-03-01T20:05:01.929Z,-2.11
2018-03-01T20:07:32.887Z,-2.12
2018-03-01T20:10:03.911Z,-1.97
2018-03-01T20:12:34.915Z,-1.99
2018-03-01T20:15:05.974Z,-1.98
2018-03-01T20:17:37.020Z,-1.96
2018-03-01T20:20:08.003Z,-1.87
2018-03-01T20:22:39.004Z,-1.76
2018-03-01T20:25:10.023Z,-1.71
2018-03-01T20:27:41.045Z,-1.70
2018-03-01T20:30:12.075Z,-1.87
2018-03-01T20:32:43.105Z,-1.87
2018-03-01T20:35:14.110Z,-1.91
2018-03-01T20:37:45.106Z,-1.87
2018-03-01T20:40:16.099Z,-1.97
2018-03-01T20:42:47.081Z,-1.91
2018-03-01T20:45:18.099Z,-1.83
2018-03-01T20:47:49.077Z,-1.68
2018-03-01T20:50:20.094Z,-1.65
2018-03-01T20:52:51.107Z,-1.69
2018-03-01T20:55:22.158Z,-1.66
2018-03-01T20:57:53.173Z,-1.69
2018-03-01T21:00:24.211Z,-1.61
2018-03-01T21:02:55.216Z,-1.57
2018-03-01T21:05:26.255Z,-1.57
2018-03-01T21:07:57.241Z,-1.52
2018-03-01T21:10:28.256Z,-1.47
2018-03-01T21:12:59.251Z,-1.45
2018-03-01T21:15:30.313Z,-1.49
2018-03-01T21:18:01.327Z,-1.59
2018-03-01T21:20:32.337Z,-1.65
2018-03-01T21:23:03.304Z,-1.56
2018-03-01T21:25:34.296Z,-1.56
2018-03-01T21:28:05.293Z,-1.53
2018-03-01T21:30:36.261Z,-1.53
2018-03-01T21:33:07.313Z,-1.68
2018-03-01T21:35:38.256Z,-1.64
2018-03-01T21:38:09.266Z,-1.70
2018-03-01T21:40:40.322Z,-1.67
2018-03-01T21:43:11.327Z,-1.59
2018-03-01T21:45:42.296Z,-1.53
2018-03-01T21:48:13.305Z,-1.57
2018-03-01T21:50:44.354Z,-1.67
2018-03-01T21:53:15.332Z,-1.76
2018-03-01T21:55:46.863Z,-1.75
2018-03-01T21:58:17.901Z,-1.83
2018-03-01T22:00:48.916Z,-1.95
2018-03-01T22:03:19.863Z,-2.03
2018-03-01T22:05:50.840Z,-2.16
2018-03-01T22:08:21.856Z,-2.28
2018-03-01T22:10:52.857Z,-2.36
2018-03-01T22:13:23.890Z,-2.47
2018-03-01T22:15:54.938Z,-2.60
2018-03-01T22:18:25.905Z,-2.70
2018-03-01T22:20:56.894Z,-2.73
2018-03-01T22:23:27.877Z,-2.77
2018-03-01T22:25:58.857Z,-2.88
2018-03-01T22:28:29.877Z,-2.92
2018-03-01T22:31:00.944Z,-2.92
2018-03-01T22:33:31.934Z,-2.94
2018-03-01T22:36:02.944Z,-3.00
2018-03-01T22:38:33.951Z,-3.03
2018-03-01T22:41:04.973Z,-3.05
2018-03-01T22:43:35.962Z,-3.06
2018-03-01T22:46:07.011Z,-3.16
2018-03-01T22:48:37.997Z,-3.23
2018-03-01T22:51:08.970Z,-3.24
2018-03-01T22:53:39.947Z,-3.36
2018-03-01T22:56:10.967Z,-3.33
2018-03-01T22:58:42.005Z,-3.43
2018-03-01T23:01:13.053Z,-3.55
2018-03-01T23:03:44.056Z,-3.61
2018-03-01T23:06:15.065Z,-3.64
2018-03-01T23:08:46.049Z,-3.71
2018-03-01T23:11:17.055Z,-3.80
2018-03-01T23:13:48.023Z,-3.86
2018-03-01T23:16:19.045Z,-3.88
2018-03-01T23:18:50.059Z,-3.93
2018-03-01T23:21:21.018Z,-3.96
2018-03-01T23:23:52.045Z,-3.92
2018-03-01T23:26:23.027Z,-3.91
2018-03-01T23:28:54.061Z,-3.90
2018-03-01T23:31:25.020Z,-3.96
2018-03-01T23:33:55.999Z,-3.92
2018-03-01T23:36:27.017Z,-3.92
2018-03-01T23:38:57.975Z,-3.93
2018-03-01T23:41:28.978Z,-4.07
2018-03-01T23:44:00.028Z,-4.09
2018-03-01T23:46:31.260Z,-4.18
2018-03-01T23:49:02.337Z,-4.29
2018-03-01T23:51:33.362Z,-4.36
2018-03-01T23:54:04.375Z,-4.37
2018-03-01T23:56:35.393Z,-4.36
2018-03-01T23:59:06.414Z,-4.39
